Terminal Aerodrome Forecast
Issued by NWS Cleveland, OH

Home | Current Version | Previous Version | Text Only | Print | Product List | Glossary Off
Versions: 1 2 3 4 5 6 7 8 9 10 11 12 13 14 15 16

276
FTUS41 KCLE 170543
TAFTOL
TAF
KTOL 170543Z 1706/1806 24006KT P6SM SCT025 BKN050
      TEMPO 1706/1709 BKN025
     FM171000 24004KT P6SM SCT040
     FM171500 24006KT P6SM BKN035
     FM171800 25012KT P6SM SCT035=

USA.gov is the U.S. government's official web portal to all federal, state and local government web resources and services.